Helston, United Kingdom
Current Conditions -  °F | °C
As of 5:50 PM on Tuesday 27 Jan 2015 (Local Time) from EGDR Reporting Station
Haze Haze  
Wind Chill:   Ceiling: 3000
Heat Index:   Visibility: 6mi
Dew Point:   Wind: 10mph
Humidity: 76%   Direction: 270°W
Pressure: 30.33"   Gusts: NA
Location:  50.08°N, 5.2°W
Report Text: EGDR 271750Z 27009KT 9999 HZ FEW014 SCT022 OVC030 08/04 Q1027 REDZ WHT TEMPO 5000 -DZ SCT009 OVC020 GRN
Loading
Personal Weather Stations






























Interactive Weather Map New forecast layout! Learn more

10-Day Weather Forecast

Advertisements
Track Severe Weather on mobile